sensor_id;sensor_type;location;lat;lon;timestamp;temperature;humidity
26378;DHT22;14078;50.974;6.786;2023-03-14T00:01:59;10.70;1.00
26378;DHT22;14078;50.974;6.786;2023-03-14T00:04:27;10.80;1.00
26378;DHT22;14078;50.974;6.786;2023-03-14T00:06:53;10.80;1.00
26378;DHT22;14078;50.974;6.786;2023-03-14T00:09:20;10.80;1.00
26378;DHT22;14078;50.974;6.786;2023-03-14T00:11:47;10.70;1.00
26378;DHT22;14078;50.974;6.786;2023-03-14T00:14:13;10.90;1.00
26378;DHT22;14078;50.974;6.786;2023-03-14T00:16:42;10.90;1.00
26378;DHT22;14078;50.974;6.786;2023-03-14T00:19:11;10.80;1.00
26378;DHT22;14078;50.974;6.786;2023-03-14T00:21:39;10.70;1.00
26378;DHT22;14078;50.974;6.786;2023-03-14T00:24:06;10.80;1.00
26378;DHT22;14078;50.974;6.786;2023-03-14T00:26:32;10.90;99.90
26378;DHT22;14078;50.974;6.786;2023-03-14T00:28:59;11.00;99.90
26378;DHT22;14078;50.974;6.786;2023-03-14T00:31:25;11.10;99.90
26378;DHT22;14078;50.974;6.786;2023-03-14T00:33:52;11.20;99.90
26378;DHT22;14078;50.974;6.786;2023-03-14T00:36:19;11.30;1.00
26378;DHT22;14078;50.974;6.786;2023-03-14T00:38:48;11.40;19.00
26378;DHT22;14078;50.974;6.786;2023-03-14T00:41:16;11.50;99.90
26378;DHT22;14078;50.974;6.786;2023-03-14T00:43:43;11.40;1.00
26378;DHT22;14078;50.974;6.786;2023-03-14T00:46:10;11.50;28.90
26378;DHT22;14078;50.974;6.786;2023-03-14T00:48:36;11.50;99.90
26378;DHT22;14078;50.974;6.786;2023-03-14T00:51:03;11.50;61.50
26378;DHT22;14078;50.974;6.786;2023-03-14T00:53:30;11.40;1.00
26378;DHT22;14078;50.974;6.786;2023-03-14T00:56:01;11.20;54.20
26378;DHT22;14078;50.974;6.786;2023-03-14T00:58:28;10.90;99.90
26378;DHT22;14078;50.974;6.786;2023-03-14T01:00:54;10.70;99.90
26378;DHT22;14078;50.974;6.786;2023-03-14T01:03:21;10.30;99.90
26378;DHT22;14078;50.974;6.786;2023-03-14T01:05:47;10.00;99.90
26378;DHT22;14078;50.974;6.786;2023-03-14T01:08:14;9.90;99.90
26378;DHT22;14078;50.974;6.786;2023-03-14T01:10:40;9.80;99.90
26378;DHT22;14078;50.974;6.786;2023-03-14T01:13:08;9.70;99.90
26378;DHT22;14078;50.974;6.786;2023-03-14T01:15:36;9.60;99.90
26378;DHT22;14078;50.974;6.786;2023-03-14T01:18:03;9.60;99.90
26378;DHT22;14078;50.974;6.786;2023-03-14T01:20:30;9.50;99.90
26378;DHT22;14078;50.974;6.786;2023-03-14T01:22:56;9.50;99.90
26378;DHT22;14078;50.974;6.786;2023-03-14T01:25:23;9.50;99.90
26378;DHT22;14078;50.974;6.786;2023-03-14T01:27:49;9.50;99.90
26378;DHT22;14078;50.974;6.786;2023-03-14T01:30:17;9.40;99.90
26378;DHT22;14078;50.974;6.786;2023-03-14T01:32:44;9.40;99.90
26378;DHT22;14078;50.974;6.786;2023-03-14T01:35:10;9.30;99.90
26378;DHT22;14078;50.974;6.786;2023-03-14T01:37:37;9.30;99.90
26378;DHT22;14078;50.974;6.786;2023-03-14T01:40:03;9.30;99.90
26378;DHT22;14078;50.974;6.786;2023-03-14T01:42:31;9.30;99.90
26378;DHT22;14078;50.974;6.786;2023-03-14T01:44:58;9.40;99.90
26378;DHT22;14078;50.974;6.786;2023-03-14T01:47:26;9.40;99.90
26378;DHT22;14078;50.974;6.786;2023-03-14T01:49:54;9.50;99.90
26378;DHT22;14078;50.974;6.786;2023-03-14T01:52:23;9.40;99.90
26378;DHT22;14078;50.974;6.786;2023-03-14T01:54:51;9.50;99.90
26378;DHT22;14078;50.974;6.786;2023-03-14T01:57:20;9.50;99.90
26378;DHT22;14078;50.974;6.786;2023-03-14T01:59:48;9.40;99.90
26378;DHT22;14078;50.974;6.786;2023-03-14T02:02:15;9.40;99.90
26378;DHT22;14078;50.974;6.786;2023-03-14T02:04:43;9.40;99.90
26378;DHT22;14078;50.974;6.786;2023-03-14T02:07:11;9.40;99.90
26378;DHT22;14078;50.974;6.786;2023-03-14T02:09:38;9.50;99.90
26378;DHT22;14078;50.974;6.786;2023-03-14T02:12:06;9.50;99.90
26378;DHT22;14078;50.974;6.786;2023-03-14T02:14:34;9.40;99.90
26378;DHT22;14078;50.974;6.786;2023-03-14T02:17:03;9.40;99.90
26378;DHT22;14078;50.974;6.786;2023-03-14T02:19:34;9.40;99.90
26378;DHT22;14078;50.974;6.786;2023-03-14T02:22:06;9.50;99.90
26378;DHT22;14078;50.974;6.786;2023-03-14T02:24:35;9.40;99.90
26378;DHT22;14078;50.974;6.786;2023-03-14T02:27:10;9.40;99.90
26378;DHT22;14078;50.974;6.786;2023-03-14T02:29:38;9.40;99.90
26378;DHT22;14078;50.974;6.786;2023-03-14T02:32:05;9.40;99.90
26378;DHT22;14078;50.974;6.786;2023-03-14T02:34:32;9.40;99.90
26378;DHT22;14078;50.974;6.786;2023-03-14T02:36:59;9.40;99.90
26378;DHT22;14078;50.974;6.786;2023-03-14T02:39:27;9.40;99.90
26378;DHT22;14078;50.974;6.786;2023-03-14T02:41:55;9.40;99.90
26378;DHT22;14078;50.974;6.786;2023-03-14T02:44:23;9.50;99.90
26378;DHT22;14078;50.974;6.786;2023-03-14T02:46:49;9.50;99.90
26378;DHT22;14078;50.974;6.786;2023-03-14T02:49:17;9.50;99.90
26378;DHT22;14078;50.974;6.786;2023-03-14T02:51:44;9.40;99.90
26378;DHT22;14078;50.974;6.786;2023-03-14T02:54:11;9.30;99.90
26378;DHT22;14078;50.974;6.786;2023-03-14T02:56:37;9.20;99.90
26378;DHT22;14078;50.974;6.786;2023-03-14T02:59:04;9.30;99.90
26378;DHT22;14078;50.974;6.786;2023-03-14T03:01:32;9.30;99.90
26378;DHT22;14078;50.974;6.786;2023-03-14T03:03:59;9.30;99.90
26378;DHT22;14078;50.974;6.786;2023-03-14T03:06:26;9.30;99.90
26378;DHT22;14078;50.974;6.786;2023-03-14T03:08:52;9.30;99.90
26378;DHT22;14078;50.974;6.786;2023-03-14T03:11:19;9.30;99.90
26378;DHT22;14078;50.974;6.786;2023-03-14T03:13:46;9.30;99.90
26378;DHT22;14078;50.974;6.786;2023-03-14T03:16:12;9.50;99.90
26378;DHT22;14078;50.974;6.786;2023-03-14T03:18:41;9.60;99.90
26378;DHT22;14078;50.974;6.786;2023-03-14T03:21:08;9.60;99.90
26378;DHT22;14078;50.974;6.786;2023-03-14T03:23:34;9.60;99.90
26378;DHT22;14078;50.974;6.786;2023-03-14T03:26:01;9.50;99.90
26378;DHT22;14078;50.974;6.786;2023-03-14T03:28:28;9.60;99.90
26378;DHT22;14078;50.974;6.786;2023-03-14T03:30:55;9.60;99.90
26378;DHT22;14078;50.974;6.786;2023-03-14T03:33:21;9.50;99.90
26378;DHT22;14078;50.974;6.786;2023-03-14T03:35:50;9.50;99.90
26378;DHT22;14078;50.974;6.786;2023-03-14T03:38:17;9.50;99.90
26378;DHT22;14078;50.974;6.786;2023-03-14T03:40:45;9.60;99.90
26378;DHT22;14078;50.974;6.786;2023-03-14T03:43:11;9.50;99.90
26378;DHT22;14078;50.974;6.786;2023-03-14T03:45:38;9.60;99.90
26378;DHT22;14078;50.974;6.786;2023-03-14T03:48:05;9.50;99.90
26378;DHT22;14078;50.974;6.786;2023-03-14T03:50:32;9.50;99.90
26378;DHT22;14078;50.974;6.786;2023-03-14T03:52:59;9.60;99.90
26378;DHT22;14078;50.974;6.786;2023-03-14T03:55:26;9.60;99.90
26378;DHT22;14078;50.974;6.786;2023-03-14T03:57:53;9.70;99.90
26378;DHT22;14078;50.974;6.786;2023-03-14T04:00:19;9.70;99.90
26378;DHT22;14078;50.974;6.786;2023-03-14T04:02:46;9.80;99.90
26378;DHT22;14078;50.974;6.786;2023-03-14T04:05:12;9.90;99.90
26378;DHT22;14078;50.974;6.786;2023-03-14T04:07:39;9.90;99.90
26378;DHT22;14078;50.974;6.786;2023-03-14T04:10:07;9.90;99.90
26378;DHT22;14078;50.974;6.786;2023-03-14T04:12:34;9.90;99.90
26378;DHT22;14078;50.974;6.786;2023-03-14T04:15:00;9.80;99.90
26378;DHT22;14078;50.974;6.786;2023-03-14T04:17:27;9.70;99.90
26378;DHT22;14078;50.974;6.786;2023-03-14T04:19:54;9.70;99.90
26378;DHT22;14078;50.974;6.786;2023-03-14T04:22:20;9.70;99.90
26378;DHT22;14078;50.974;6.786;2023-03-14T04:24:47;9.70;99.90
26378;DHT22;14078;50.974;6.786;2023-03-14T04:27:14;9.80;99.90
26378;DHT22;14078;50.974;6.786;2023-03-14T04:29:41;9.80;99.90
26378;DHT22;14078;50.974;6.786;2023-03-14T04:32:08;9.70;99.90
26378;DHT22;14078;50.974;6.786;2023-03-14T04:34:34;9.80;99.90
26378;DHT22;14078;50.974;6.786;2023-03-14T04:37:01;9.70;99.90
26378;DHT22;14078;50.974;6.786;2023-03-14T04:39:27;9.70;99.90
26378;DHT22;14078;50.974;6.786;2023-03-14T04:41:54;9.70;99.90
26378;DHT22;14078;50.974;6.786;2023-03-14T04:44:22;9.80;99.90
26378;DHT22;14078;50.974;6.786;2023-03-14T04:46:48;9.80;99.90
26378;DHT22;14078;50.974;6.786;2023-03-14T04:49:15;9.70;99.90
26378;DHT22;14078;50.974;6.786;2023-03-14T04:51:41;9.70;99.90
26378;DHT22;14078;50.974;6.786;2023-03-14T04:54:08;9.70;99.90
26378;DHT22;14078;50.974;6.786;2023-03-14T04:56:35;9.70;99.90
26378;DHT22;14078;50.974;6.786;2023-03-14T04:59:02;9.70;99.90
26378;DHT22;14078;50.974;6.786;2023-03-14T05:01:30;9.70;99.90
26378;DHT22;14078;50.974;6.786;2023-03-14T05:03:56;9.70;99.90
26378;DHT22;14078;50.974;6.786;2023-03-14T05:06:23;9.80;99.90
26378;DHT22;14078;50.974;6.786;2023-03-14T05:08:49;9.80;99.90
26378;DHT22;14078;50.974;6.786;2023-03-14T05:11:16;9.80;99.90
26378;DHT22;14078;50.974;6.786;2023-03-14T05:13:42;9.90;99.90
26378;DHT22;14078;50.974;6.786;2023-03-14T05:16:09;9.90;99.90
26378;DHT22;14078;50.974;6.786;2023-03-14T05:18:38;9.90;99.90
26378;DHT22;14078;50.974;6.786;2023-03-14T05:21:04;10.00;99.90
26378;DHT22;14078;50.974;6.786;2023-03-14T05:23:31;9.90;99.90
26378;DHT22;14078;50.974;6.786;2023-03-14T05:25:57;9.90;99.90
26378;DHT22;14078;50.974;6.786;2023-03-14T05:28:24;9.90;99.90
26378;DHT22;14078;50.974;6.786;2023-03-14T05:30:50;9.90;99.90
26378;DHT22;14078;50.974;6.786;2023-03-14T05:33:17;9.90;99.90
26378;DHT22;14078;50.974;6.786;2023-03-14T05:35:45;10.00;99.90
26378;DHT22;14078;50.974;6.786;2023-03-14T05:38:11;10.00;99.90
26378;DHT22;14078;50.974;6.786;2023-03-14T05:40:38;10.00;99.90
26378;DHT22;14078;50.974;6.786;2023-03-14T05:43:04;10.00;99.90
26378;DHT22;14078;50.974;6.786;2023-03-14T05:45:33;10.00;99.90
26378;DHT22;14078;50.974;6.786;2023-03-14T05:47:59;10.00;99.90
26378;DHT22;14078;50.974;6.786;2023-03-14T05:50:26;10.00;99.90
26378;DHT22;14078;50.974;6.786;2023-03-14T05:52:54;10.00;99.90
26378;DHT22;14078;50.974;6.786;2023-03-14T05:55:20;9.90;99.90
26378;DHT22;14078;50.974;6.786;2023-03-14T05:57:47;10.00;99.90
26378;DHT22;14078;50.974;6.786;2023-03-14T06:00:13;10.00;99.90
26378;DHT22;14078;50.974;6.786;2023-03-14T06:02:40;9.90;99.90
26378;DHT22;14078;50.974;6.786;2023-03-14T06:05:07;9.90;99.90
26378;DHT22;14078;50.974;6.786;2023-03-14T06:07:33;9.90;99.90
26378;DHT22;14078;50.974;6.786;2023-03-14T06:10:01;9.80;99.90
26378;DHT22;14078;50.974;6.786;2023-03-14T06:12:28;9.80;99.90
26378;DHT22;14078;50.974;6.786;2023-03-14T06:14:54;9.70;99.90
26378;DHT22;14078;50.974;6.786;2023-03-14T06:17:21;9.80;99.90
26378;DHT22;14078;50.974;6.786;2023-03-14T06:19:47;9.80;99.90
26378;DHT22;14078;50.974;6.786;2023-03-14T06:22:14;9.80;99.90
26378;DHT22;14078;50.974;6.786;2023-03-14T06:24:40;9.80;99.90
26378;DHT22;14078;50.974;6.786;2023-03-14T06:27:08;9.80;99.90
26378;DHT22;14078;50.974;6.786;2023-03-14T06:29:35;9.90;99.90
26378;DHT22;14078;50.974;6.786;2023-03-14T06:32:01;9.90;99.90
26378;DHT22;14078;50.974;6.786;2023-03-14T06:34:28;9.90;99.90
26378;DHT22;14078;50.974;6.786;2023-03-14T06:36:54;10.00;99.90
26378;DHT22;14078;50.974;6.786;2023-03-14T06:39:21;10.10;99.90
26378;DHT22;14078;50.974;6.786;2023-03-14T06:41:48;10.10;99.90
26378;DHT22;14078;50.974;6.786;2023-03-14T06:44:16;10.20;99.90
26378;DHT22;14078;50.974;6.786;2023-03-14T06:46:42;10.40;99.90
26378;DHT22;14078;50.974;6.786;2023-03-14T06:49:09;10.40;99.90
26378;DHT22;14078;50.974;6.786;2023-03-14T06:51:35;10.50;99.90
26378;DHT22;14078;50.974;6.786;2023-03-14T06:54:02;10.50;99.90
26378;DHT22;14078;50.974;6.786;2023-03-14T06:56:28;10.60;99.90
26378;DHT22;14078;50.974;6.786;2023-03-14T06:58:55;10.50;99.90
26378;DHT22;14078;50.974;6.786;2023-03-14T07:01:24;10.60;99.90
26378;DHT22;14078;50.974;6.786;2023-03-14T07:03:51;10.60;99.90
26378;DHT22;14078;50.974;6.786;2023-03-14T07:06:17;10.60;99.90
26378;DHT22;14078;50.974;6.786;2023-03-14T07:08:44;10.60;99.90
26378;DHT22;14078;50.974;6.786;2023-03-14T07:11:11;10.60;99.90
26378;DHT22;14078;50.974;6.786;2023-03-14T07:13:38;10.60;99.90
26378;DHT22;14078;50.974;6.786;2023-03-14T07:16:05;10.70;99.90
26378;DHT22;14078;50.974;6.786;2023-03-14T07:18:33;10.70;99.90
26378;DHT22;14078;50.974;6.786;2023-03-14T07:20:59;10.80;99.90
26378;DHT22;14078;50.974;6.786;2023-03-14T07:23:26;10.80;99.90
26378;DHT22;14078;50.974;6.786;2023-03-14T07:25:52;10.90;99.90
26378;DHT22;14078;50.974;6.786;2023-03-14T07:28:19;11.00;99.90
26378;DHT22;14078;50.974;6.786;2023-03-14T07:30:45;11.00;99.90
26378;DHT22;14078;50.974;6.786;2023-03-14T07:33:12;11.00;99.90
26378;DHT22;14078;50.974;6.786;2023-03-14T07:35:40;11.00;99.90
26378;DHT22;14078;50.974;6.786;2023-03-14T07:38:06;11.00;99.90
26378;DHT22;14078;50.974;6.786;2023-03-14T07:40:33;11.00;99.90
26378;DHT22;14078;50.974;6.786;2023-03-14T07:42:59;11.00;99.90
26378;DHT22;14078;50.974;6.786;2023-03-14T07:45:26;11.00;99.90
26378;DHT22;14078;50.974;6.786;2023-03-14T07:47:52;11.00;99.90
26378;DHT22;14078;50.974;6.786;2023-03-14T07:50:22;11.10;99.90
26378;DHT22;14078;50.974;6.786;2023-03-14T07:52:50;11.20;99.90
26378;DHT22;14078;50.974;6.786;2023-03-14T07:55:17;11.30;99.90
26378;DHT22;14078;50.974;6.786;2023-03-14T07:57:43;11.30;99.90
26378;DHT22;14078;50.974;6.786;2023-03-14T08:00:10;11.30;99.90
26378;DHT22;14078;50.974;6.786;2023-03-14T08:02:37;11.30;99.90
26378;DHT22;14078;50.974;6.786;2023-03-14T08:05:03;11.30;99.90
26378;DHT22;14078;50.974;6.786;2023-03-14T08:07:30;11.40;99.90
26378;DHT22;14078;50.974;6.786;2023-03-14T08:09:58;11.40;99.90
26378;DHT22;14078;50.974;6.786;2023-03-14T08:12:24;11.50;99.90
26378;DHT22;14078;50.974;6.786;2023-03-14T08:14:51;11.60;99.90
26378;DHT22;14078;50.974;6.786;2023-03-14T08:17:17;11.50;99.90
26378;DHT22;14078;50.974;6.786;2023-03-14T08:19:44;11.60;99.90
26378;DHT22;14078;50.974;6.786;2023-03-14T08:22:10;11.70;99.90
26378;DHT22;14078;50.974;6.786;2023-03-14T08:24:37;11.70;99.90
26378;DHT22;14078;50.974;6.786;2023-03-14T08:27:05;11.60;99.90
26378;DHT22;14078;50.974;6.786;2023-03-14T08:29:31;11.50;99.90
26378;DHT22;14078;50.974;6.786;2023-03-14T08:31:58;11.40;99.90
26378;DHT22;14078;50.974;6.786;2023-03-14T08:34:25;11.30;99.90
26378;DHT22;14078;50.974;6.786;2023-03-14T08:36:51;11.20;99.90
26378;DHT22;14078;50.974;6.786;2023-03-14T08:39:18;11.10;99.90
26378;DHT22;14078;50.974;6.786;2023-03-14T08:41:44;11.10;99.90
26378;DHT22;14078;50.974;6.786;2023-03-14T08:44:12;11.10;99.90
26378;DHT22;14078;50.974;6.786;2023-03-14T08:46:39;11.10;99.90
26378;DHT22;14078;50.974;6.786;2023-03-14T08:49:05;11.10;99.90
26378;DHT22;14078;50.974;6.786;2023-03-14T08:51:32;11.00;99.90
26378;DHT22;14078;50.974;6.786;2023-03-14T08:53:58;11.00;99.90
26378;DHT22;14078;50.974;6.786;2023-03-14T08:56:25;10.90;99.90
26378;DHT22;14078;50.974;6.786;2023-03-14T08:58:52;10.90;99.90
26378;DHT22;14078;50.974;6.786;2023-03-14T09:01:19;10.90;99.90
26378;DHT22;14078;50.974;6.786;2023-03-14T09:03:49;10.80;99.90
26378;DHT22;14078;50.974;6.786;2023-03-14T09:06:15;10.80;99.90
26378;DHT22;14078;50.974;6.786;2023-03-14T09:08:43;10.80;99.90
26378;DHT22;14078;50.974;6.786;2023-03-14T09:11:09;10.80;99.90
26378;DHT22;14078;50.974;6.786;2023-03-14T09:13:36;10.80;99.90
26378;DHT22;14078;50.974;6.786;2023-03-14T09:16:03;10.80;99.90
26378;DHT22;14078;50.974;6.786;2023-03-14T09:18:31;10.80;99.90
26378;DHT22;14078;50.974;6.786;2023-03-14T09:20:57;10.90;99.90
26378;DHT22;14078;50.974;6.786;2023-03-14T09:23:24;11.10;99.90
26378;DHT22;14078;50.974;6.786;2023-03-14T09:25:53;11.00;99.90
26378;DHT22;14078;50.974;6.786;2023-03-14T09:28:20;10.90;99.90
26378;DHT22;14078;50.974;6.786;2023-03-14T09:30:46;10.20;99.90
26378;DHT22;14078;50.974;6.786;2023-03-14T09:33:14;9.60;99.90
26378;DHT22;14078;50.974;6.786;2023-03-14T09:35:42;9.40;99.90
26378;DHT22;14078;50.974;6.786;2023-03-14T09:38:09;9.00;99.90
26378;DHT22;14078;50.974;6.786;2023-03-14T09:40:35;8.80;99.90
26378;DHT22;14078;50.974;6.786;2023-03-14T09:43:03;8.60;99.90
26378;DHT22;14078;50.974;6.786;2023-03-14T09:45:31;8.50;99.90
26378;DHT22;14078;50.974;6.786;2023-03-14T09:47:59;8.40;99.90
26378;DHT22;14078;50.974;6.786;2023-03-14T09:50:30;8.40;99.90
26378;DHT22;14078;50.974;6.786;2023-03-14T09:53:01;8.30;99.90
26378;DHT22;14078;50.974;6.786;2023-03-14T09:55:28;8.20;99.90
26378;DHT22;14078;50.974;6.786;2023-03-14T09:57:56;8.30;99.90
26378;DHT22;14078;50.974;6.786;2023-03-14T10:00:25;8.30;99.90
26378;DHT22;14078;50.974;6.786;2023-03-14T10:02:52;8.30;99.90
26378;DHT22;14078;50.974;6.786;2023-03-14T10:05:20;8.20;99.90
26378;DHT22;14078;50.974;6.786;2023-03-14T10:07:47;8.20;99.90
26378;DHT22;14078;50.974;6.786;2023-03-14T10:10:16;8.10;99.90
26378;DHT22;14078;50.974;6.786;2023-03-14T10:12:44;8.10;99.90
26378;DHT22;14078;50.974;6.786;2023-03-14T10:15:12;8.10;99.90
26378;DHT22;14078;50.974;6.786;2023-03-14T10:17:40;8.00;99.90
26378;DHT22;14078;50.974;6.786;2023-03-14T10:20:15;7.90;99.90
26378;DHT22;14078;50.974;6.786;2023-03-14T10:22:52;7.80;99.90
26378;DHT22;14078;50.974;6.786;2023-03-14T10:25:25;7.80;99.90
26378;DHT22;14078;50.974;6.786;2023-03-14T10:27:52;7.90;99.90
26378;DHT22;14078;50.974;6.786;2023-03-14T10:30:26;7.80;99.90
26378;DHT22;14078;50.974;6.786;2023-03-14T10:32:53;7.90;99.90
26378;DHT22;14078;50.974;6.786;2023-03-14T10:35:20;7.80;99.90
26378;DHT22;14078;50.974;6.786;2023-03-14T10:37:48;7.80;99.90
26378;DHT22;14078;50.974;6.786;2023-03-14T10:40:14;7.80;99.90
26378;DHT22;14078;50.974;6.786;2023-03-14T10:42:43;7.80;99.90
26378;DHT22;14078;50.974;6.786;2023-03-14T10:45:22;7.90;99.90
26378;DHT22;14078;50.974;6.786;2023-03-14T10:47:51;7.90;99.90
26378;DHT22;14078;50.974;6.786;2023-03-14T10:50:22;7.90;99.90
26378;DHT22;14078;50.974;6.786;2023-03-14T10:52:49;7.90;99.90
26378;DHT22;14078;50.974;6.786;2023-03-14T10:55:16;7.90;99.90
26378;DHT22;14078;50.974;6.786;2023-03-14T10:57:44;8.00;99.90
26378;DHT22;14078;50.974;6.786;2023-03-14T11:00:13;8.00;99.90
26378;DHT22;14078;50.974;6.786;2023-03-14T11:02:47;7.90;99.90
26378;DHT22;14078;50.974;6.786;2023-03-14T11:05:19;8.00;99.90
26378;DHT22;14078;50.974;6.786;2023-03-14T11:07:47;8.10;99.90
26378;DHT22;14078;50.974;6.786;2023-03-14T11:10:16;8.20;99.90
26378;DHT22;14078;50.974;6.786;2023-03-14T11:12:48;8.40;99.90
26378;DHT22;14078;50.974;6.786;2023-03-14T11:15:17;8.60;99.90
26378;DHT22;14078;50.974;6.786;2023-03-14T11:17:46;8.80;99.90
26378;DHT22;14078;50.974;6.786;2023-03-14T11:20:19;8.70;99.90
26378;DHT22;14078;50.974;6.786;2023-03-14T11:22:50;8.70;99.90
26378;DHT22;14078;50.974;6.786;2023-03-14T11:25:21;8.60;99.90
26378;DHT22;14078;50.974;6.786;2023-03-14T11:27:54;8.70;99.90
26378;DHT22;14078;50.974;6.786;2023-03-14T11:30:23;8.70;99.90
26378;DHT22;14078;50.974;6.786;2023-03-14T11:32:54;8.70;99.90
26378;DHT22;14078;50.974;6.786;2023-03-14T11:35:24;8.70;99.90
26378;DHT22;14078;50.974;6.786;2023-03-14T11:37:52;8.20;99.90
26378;DHT22;14078;50.974;6.786;2023-03-14T11:40:19;7.10;99.90
26378;DHT22;14078;50.974;6.786;2023-03-14T11:42:48;6.70;99.90
26378;DHT22;14078;50.974;6.786;2023-03-14T11:45:22;6.60;99.90
26378;DHT22;14078;50.974;6.786;2023-03-14T11:47:52;6.60;99.90
26378;DHT22;14078;50.974;6.786;2023-03-14T11:50:21;6.60;99.90
26378;DHT22;14078;50.974;6.786;2023-03-14T11:52:49;6.60;99.90
26378;DHT22;14078;50.974;6.786;2023-03-14T11:55:17;6.70;99.90
26378;DHT22;14078;50.974;6.786;2023-03-14T11:57:45;6.70;99.90
26378;DHT22;14078;50.974;6.786;2023-03-14T12:00:14;6.80;99.90
26378;DHT22;14078;50.974;6.786;2023-03-14T12:02:45;6.80;99.90
26378;DHT22;14078;50.974;6.786;2023-03-14T12:08:08;6.90;99.90
26378;DHT22;14078;50.974;6.786;2023-03-14T12:10:42;7.00;99.90
26378;DHT22;14078;50.974;6.786;2023-03-14T12:13:10;7.50;99.90
26378;DHT22;14078;50.974;6.786;2023-03-14T12:15:38;7.60;99.90
26378;DHT22;14078;50.974;6.786;2023-03-14T12:18:12;7.70;99.90
26378;DHT22;14078;50.974;6.786;2023-03-14T12:20:45;7.80;99.90
26378;DHT22;14078;50.974;6.786;2023-03-14T12:23:19;7.70;99.90
26378;DHT22;14078;50.974;6.786;2023-03-14T12:25:46;7.70;99.90
26378;DHT22;14078;50.974;6.786;2023-03-14T12:28:16;7.70;99.90
26378;DHT22;14078;50.974;6.786;2023-03-14T12:30:44;7.50;99.90
26378;DHT22;14078;50.974;6.786;2023-03-14T12:33:18;7.40;99.90
26378;DHT22;14078;50.974;6.786;2023-03-14T12:35:45;7.40;99.90
26378;DHT22;14078;50.974;6.786;2023-03-14T12:38:13;7.30;99.90
26378;DHT22;14078;50.974;6.786;2023-03-14T12:40:42;7.20;99.90
26378;DHT22;14078;50.974;6.786;2023-03-14T12:43:24;7.20;99.90
26378;DHT22;14078;50.974;6.786;2023-03-14T12:48:33;7.10;99.90
26378;DHT22;14078;50.974;6.786;2023-03-14T12:51:01;7.10;99.90
26378;DHT22;14078;50.974;6.786;2023-03-14T12:53:37;7.20;99.90
26378;DHT22;14078;50.974;6.786;2023-03-14T12:56:11;7.20;99.90
26378;DHT22;14078;50.974;6.786;2023-03-14T12:58:44;7.10;99.90
26378;DHT22;14078;50.974;6.786;2023-03-14T13:01:14;7.00;99.90
26378;DHT22;14078;50.974;6.786;2023-03-14T13:03:44;6.90;99.90
26378;DHT22;14078;50.974;6.786;2023-03-14T13:06:45;6.90;99.90
26378;DHT22;14078;50.974;6.786;2023-03-14T13:08:57;6.90;99.90
26378;DHT22;14078;50.974;6.786;2023-03-14T13:11:27;7.00;99.90
26378;DHT22;14078;50.974;6.786;2023-03-14T13:13:55;6.90;99.90
26378;DHT22;14078;50.974;6.786;2023-03-14T13:16:23;6.90;99.90
26378;DHT22;14078;50.974;6.786;2023-03-14T13:18:51;7.00;99.90
26378;DHT22;14078;50.974;6.786;2023-03-14T13:21:25;6.90;99.90
26378;DHT22;14078;50.974;6.786;2023-03-14T13:23:54;7.10;99.90
26378;DHT22;14078;50.974;6.786;2023-03-14T13:26:21;7.30;99.90
26378;DHT22;14078;50.974;6.786;2023-03-14T13:28:49;7.30;99.90
26378;DHT22;14078;50.974;6.786;2023-03-14T13:31:18;7.00;99.90
26378;DHT22;14078;50.974;6.786;2023-03-14T13:33:46;6.50;99.90
26378;DHT22;14078;50.974;6.786;2023-03-14T13:36:14;6.30;99.90
26378;DHT22;14078;50.974;6.786;2023-03-14T13:38:54;6.30;99.90
26378;DHT22;14078;50.974;6.786;2023-03-14T13:41:22;6.30;99.90
26378;DHT22;14078;50.974;6.786;2023-03-14T13:43:49;6.20;99.90
26378;DHT22;14078;50.974;6.786;2023-03-14T13:46:16;6.20;99.90
26378;DHT22;14078;50.974;6.786;2023-03-14T13:48:44;6.20;99.90
26378;DHT22;14078;50.974;6.786;2023-03-14T13:51:14;6.20;99.90
26378;DHT22;14078;50.974;6.786;2023-03-14T13:53:42;6.30;99.90
26378;DHT22;14078;50.974;6.786;2023-03-14T13:56:09;6.40;99.90
26378;DHT22;14078;50.974;6.786;2023-03-14T13:58:36;6.50;99.90
26378;DHT22;14078;50.974;6.786;2023-03-14T14:01:05;6.60;99.90
26378;DHT22;14078;50.974;6.786;2023-03-14T14:03:33;6.60;99.90
26378;DHT22;14078;50.974;6.786;2023-03-14T14:06:00;6.70;99.90
26378;DHT22;14078;50.974;6.786;2023-03-14T14:08:28;6.80;99.90
26378;DHT22;14078;50.974;6.786;2023-03-14T14:10:57;6.90;99.90
26378;DHT22;14078;50.974;6.786;2023-03-14T14:13:24;6.90;99.90
26378;DHT22;14078;50.974;6.786;2023-03-14T14:15:52;7.00;99.90
26378;DHT22;14078;50.974;6.786;2023-03-14T14:18:21;7.10;99.90
26378;DHT22;14078;50.974;6.786;2023-03-14T14:20:49;7.10;99.90
26378;DHT22;14078;50.974;6.786;2023-03-14T14:23:16;7.20;99.90
26378;DHT22;14078;50.974;6.786;2023-03-14T14:25:45;7.20;99.90
26378;DHT22;14078;50.974;6.786;2023-03-14T14:28:16;7.20;99.90
26378;DHT22;14078;50.974;6.786;2023-03-14T14:30:43;7.30;99.90
26378;DHT22;14078;50.974;6.786;2023-03-14T14:33:11;7.30;99.90
26378;DHT22;14078;50.974;6.786;2023-03-14T14:35:38;7.30;99.90
26378;DHT22;14078;50.974;6.786;2023-03-14T14:38:09;7.30;99.90
26378;DHT22;14078;50.974;6.786;2023-03-14T14:40:43;7.30;99.90
26378;DHT22;14078;50.974;6.786;2023-03-14T14:43:12;7.30;99.90
26378;DHT22;14078;50.974;6.786;2023-03-14T14:45:42;7.30;99.90
26378;DHT22;14078;50.974;6.786;2023-03-14T14:48:10;7.40;99.90
26378;DHT22;14078;50.974;6.786;2023-03-14T14:50:37;7.40;99.90
26378;DHT22;14078;50.974;6.786;2023-03-14T14:53:18;7.40;99.90
26378;DHT22;14078;50.974;6.786;2023-03-14T14:55:49;7.40;99.90
26378;DHT22;14078;50.974;6.786;2023-03-14T14:58:20;7.50;99.90
26378;DHT22;14078;50.974;6.786;2023-03-14T15:00:50;7.40;99.90
26378;DHT22;14078;50.974;6.786;2023-03-14T15:03:18;7.40;99.90
26378;DHT22;14078;50.974;6.786;2023-03-14T15:05:45;7.50;99.90
26378;DHT22;14078;50.974;6.786;2023-03-14T15:08:11;7.50;99.90
26378;DHT22;14078;50.974;6.786;2023-03-14T15:10:38;7.50;99.90
26378;DHT22;14078;50.974;6.786;2023-03-14T15:13:04;7.50;99.90
26378;DHT22;14078;50.974;6.786;2023-03-14T15:15:32;7.70;99.90
26378;DHT22;14078;50.974;6.786;2023-03-14T15:17:59;7.70;99.90
26378;DHT22;14078;50.974;6.786;2023-03-14T15:20:26;7.70;97.70
26378;DHT22;14078;50.974;6.786;2023-03-14T15:22:53;7.70;99.90
26378;DHT22;14078;50.974;6.786;2023-03-14T15:25:19;7.60;99.90
26378;DHT22;14078;50.974;6.786;2023-03-14T15:27:46;7.60;99.90
26378;DHT22;14078;50.974;6.786;2023-03-14T15:30:13;7.60;48.90
26378;DHT22;14078;50.974;6.786;2023-03-14T15:32:41;7.60;18.90
26378;DHT22;14078;50.974;6.786;2023-03-14T15:35:08;7.60;4.00
26378;DHT22;14078;50.974;6.786;2023-03-14T15:37:35;7.60;1.00
26378;DHT22;14078;50.974;6.786;2023-03-14T15:40:02;7.60;1.00
26378;DHT22;14078;50.974;6.786;2023-03-14T15:42:35;7.60;1.00
26378;DHT22;14078;50.974;6.786;2023-03-14T15:45:02;7.60;5.30
26378;DHT22;14078;50.974;6.786;2023-03-14T15:47:29;7.70;10.70
26378;DHT22;14078;50.974;6.786;2023-03-14T15:49:58;7.70;3.80
26378;DHT22;14078;50.974;6.786;2023-03-14T15:52:25;7.70;22.50